<?xml version="1.0" encoding="utf-8"?>
<gpx xmlns:xsi="http://www.w3.org/2001/XMLSchema-instance" xmlns:xsd="http://www.w3.org/2001/XMLSchema" version="1.1" creator="Shapelink.com" xmlns="http://www.topografix.com/GPX/1/1" xmlns:gpxtpx="http://www.garmin.com/xmlschemas/TrackPointExtension/v1">
  <metadata>
    <name>Cycling 22.14 km, 2020-06-14</name>
    <desc></desc>
    <author><name>Marian Moron</name></author> 
    <time>2020-06-14T13:41:10Z</time>
  </metadata>
  <trk>
    <name>Cycling 22.14 km, 2020-06-14</name>
    <trkseg>
      <trkpt lat="51.216487336594" lon="4.480904731424">
        <ele>23.4</ele>
        <time>2020-06-14T13:41:10Z</time>
      </trkpt>
      <trkpt lat="51.216583728444" lon="4.480609017992">
        <ele>0</ele>
        <time>2020-06-14T13:41:18Z</time>
      </trkpt>
      <trkpt lat="51.216130770568" lon="4.480311292904">
        <ele>0</ele>
        <time>2020-06-14T13:41:38Z</time>
      </trkpt>
      <trkpt lat="51.21613227931" lon="4.479452399611">
        <ele>0</ele>
        <time>2020-06-14T13:42:01Z</time>
      </trkpt>
      <trkpt lat="51.216108977628" lon="4.479311248415">
        <ele>0</ele>
        <time>2020-06-14T13:42:06Z</time>
      </trkpt>
      <trkpt lat="51.216071426716" lon="4.479308482388">
        <ele>0</ele>
        <time>2020-06-14T13:42:08Z</time>
      </trkpt>
      <trkpt lat="51.21558158848" lon="4.478904223351">
        <ele>0</ele>
        <time>2020-06-14T13:42:29Z</time>
      </trkpt>
      <trkpt lat="51.215567255431" lon="4.4788263555">
        <ele>0</ele>
        <time>2020-06-14T13:42:31Z</time>
      </trkpt>
      <trkpt lat="51.215884929441" lon="4.4781306578">
        <ele>0</ele>
        <time>2020-06-14T13:42:51Z</time>
      </trkpt>
      <trkpt lat="51.216316597291" lon="4.47763864027">
        <ele>0</ele>
        <time>2020-06-14T13:43:13Z</time>
      </trkpt>
      <trkpt lat="51.216858570945" lon="4.477627911438">
        <ele>0</ele>
        <time>2020-06-14T13:43:35Z</time>
      </trkpt>
      <trkpt lat="51.217118409845" lon="4.478173740766">
        <ele>0</ele>
        <time>2020-06-14T13:43:56Z</time>
      </trkpt>
      <trkpt lat="51.217092342136" lon="4.479039674855">
        <ele>1.8</ele>
        <time>2020-06-14T13:44:17Z</time>
      </trkpt>
      <trkpt lat="51.217001817616" lon="4.479921953649">
        <ele>5.6</ele>
        <time>2020-06-14T13:44:39Z</time>
      </trkpt>
      <trkpt lat="51.216958399374" lon="4.480799706217">
        <ele>4.8</ele>
        <time>2020-06-14T13:45:01Z</time>
      </trkpt>
      <trkpt lat="51.216974073527" lon="4.48147671228">
        <ele>4</ele>
        <time>2020-06-14T13:45:20Z</time>
      </trkpt>
      <trkpt lat="51.216995531191" lon="4.481461457222">
        <ele>3.8</ele>
        <time>2020-06-14T13:45:22Z</time>
      </trkpt>
      <trkpt lat="51.217069794825" lon="4.480600719911">
        <ele>0</ele>
        <time>2020-06-14T13:45:44Z</time>
      </trkpt>
      <trkpt lat="51.217110949954" lon="4.479710813588">
        <ele>0</ele>
        <time>2020-06-14T13:46:01Z</time>
      </trkpt>
      <trkpt lat="51.217178508068" lon="4.478831468459">
        <ele>0</ele>
        <time>2020-06-14T13:46:18Z</time>
      </trkpt>
      <trkpt lat="51.21718504595" lon="4.477948267656">
        <ele>0</ele>
        <time>2020-06-14T13:46:36Z</time>
      </trkpt>
      <trkpt lat="51.217272050072" lon="4.477076298599">
        <ele>0</ele>
        <time>2020-06-14T13:46:57Z</time>
      </trkpt>
      <trkpt lat="51.217264422543" lon="4.476191253778">
        <ele>0</ele>
        <time>2020-06-14T13:47:16Z</time>
      </trkpt>
      <trkpt lat="51.217309014251" lon="4.475734775504">
        <ele>0</ele>
        <time>2020-06-14T13:47:32Z</time>
      </trkpt>
      <trkpt lat="51.217372129958" lon="4.474841516421">
        <ele>0</ele>
        <time>2020-06-14T13:47:52Z</time>
      </trkpt>
      <trkpt lat="51.217401466608" lon="4.473958064161">
        <ele>0</ele>
        <time>2020-06-14T13:48:10Z</time>
      </trkpt>
      <trkpt lat="51.217459720813" lon="4.473060530309">
        <ele>0</ele>
        <time>2020-06-14T13:48:28Z</time>
      </trkpt>
      <trkpt lat="51.21745075218" lon="4.472203061939">
        <ele>0</ele>
        <time>2020-06-14T13:48:46Z</time>
      </trkpt>
      <trkpt lat="51.21751194005" lon="4.47131030577">
        <ele>0</ele>
        <time>2020-06-14T13:49:06Z</time>
      </trkpt>
      <trkpt lat="51.217570026617" lon="4.470412436642">
        <ele>0</ele>
        <time>2020-06-14T13:49:24Z</time>
      </trkpt>
      <trkpt lat="51.217577905603" lon="4.469543987983">
        <ele>0</ele>
        <time>2020-06-14T13:49:41Z</time>
      </trkpt>
      <trkpt lat="51.217493583689" lon="4.468663134112">
        <ele>0</ele>
        <time>2020-06-14T13:49:56Z</time>
      </trkpt>
      <trkpt lat="51.217602967484" lon="4.467813544728">
        <ele>0</ele>
        <time>2020-06-14T13:50:15Z</time>
      </trkpt>
      <trkpt lat="51.217663317164" lon="4.466962530421">
        <ele>0</ele>
        <time>2020-06-14T13:50:32Z</time>
      </trkpt>
      <trkpt lat="51.217748980182" lon="4.466113946865">
        <ele>0</ele>
        <time>2020-06-14T13:50:51Z</time>
      </trkpt>
      <trkpt lat="51.217739340997" lon="4.465244827654">
        <ele>0</ele>
        <time>2020-06-14T13:51:11Z</time>
      </trkpt>
      <trkpt lat="51.217772030407" lon="4.464391634053">
        <ele>0</ele>
        <time>2020-06-14T13:51:29Z</time>
      </trkpt>
      <trkpt lat="51.217851826095" lon="4.463500721902">
        <ele>0</ele>
        <time>2020-06-14T13:51:46Z</time>
      </trkpt>
      <trkpt lat="51.217915863811" lon="4.462618359289">
        <ele>0</ele>
        <time>2020-06-14T13:52:02Z</time>
      </trkpt>
      <trkpt lat="51.217922066417" lon="4.461704983646">
        <ele>0</ele>
        <time>2020-06-14T13:52:18Z</time>
      </trkpt>
      <trkpt lat="51.217932292335" lon="4.460828488363">
        <ele>0</ele>
        <time>2020-06-14T13:52:37Z</time>
      </trkpt>
      <trkpt lat="51.217956767483" lon="4.459970014165">
        <ele>0</ele>
        <time>2020-06-14T13:52:55Z</time>
      </trkpt>
      <trkpt lat="51.218042849596" lon="4.459109444492">
        <ele>0</ele>
        <time>2020-06-14T13:53:13Z</time>
      </trkpt>
      <trkpt lat="51.218086435476" lon="4.45822448349">
        <ele>0</ele>
        <time>2020-06-14T13:53:30Z</time>
      </trkpt>
      <trkpt lat="51.218151646658" lon="4.45733851666">
        <ele>0</ele>
        <time>2020-06-14T13:53:47Z</time>
      </trkpt>
      <trkpt lat="51.218184419887" lon="4.456436037487">
        <ele>0</ele>
        <time>2020-06-14T13:54:06Z</time>
      </trkpt>
      <trkpt lat="51.218209146492" lon="4.455563397878">
        <ele>0</ele>
        <time>2020-06-14T13:54:22Z</time>
      </trkpt>
      <trkpt lat="51.218229346871" lon="4.454679526523">
        <ele>0</ele>
        <time>2020-06-14T13:54:39Z</time>
      </trkpt>
      <trkpt lat="51.21829145675" lon="4.453818789212">
        <ele>0</ele>
        <time>2020-06-14T13:54:56Z</time>
      </trkpt>
      <trkpt lat="51.218414251585" lon="4.453020413237">
        <ele>0</ele>
        <time>2020-06-14T13:55:14Z</time>
      </trkpt>
      <trkpt lat="51.218861677407" lon="4.452538370168">
        <ele>0</ele>
        <time>2020-06-14T13:55:38Z</time>
      </trkpt>
      <trkpt lat="51.219013222159" lon="4.452681616839">
        <ele>0</ele>
        <time>2020-06-14T13:56:00Z</time>
      </trkpt>
      <trkpt lat="51.219015904367" lon="4.452548009353">
        <ele>0</ele>
        <time>2020-06-14T13:56:27Z</time>
      </trkpt>
      <trkpt lat="51.218997464187" lon="4.452399398266">
        <ele>0</ele>
        <time>2020-06-14T13:56:33Z</time>
      </trkpt>
      <trkpt lat="51.219036775298" lon="4.45230099476">
        <ele>0.6</ele>
        <time>2020-06-14T13:56:41Z</time>
      </trkpt>
      <trkpt lat="51.219089581268" lon="4.45211659296">
        <ele>0</ele>
        <time>2020-06-14T13:56:47Z</time>
      </trkpt>
      <trkpt lat="51.219011210503" lon="4.451993714306">
        <ele>0</ele>
        <time>2020-06-14T13:57:12Z</time>
      </trkpt>
      <trkpt lat="51.219146242912" lon="4.452137799167">
        <ele>0</ele>
        <time>2020-06-14T13:57:38Z</time>
      </trkpt>
      <trkpt lat="51.21968536672" lon="4.452096895495">
        <ele>0</ele>
        <time>2020-06-14T13:57:59Z</time>
      </trkpt>
      <trkpt lat="51.220232956247" lon="4.451988936623">
        <ele>0</ele>
        <time>2020-06-14T13:58:22Z</time>
      </trkpt>
      <trkpt lat="51.220784149991" lon="4.451902267777">
        <ele>0</ele>
        <time>2020-06-14T13:58:42Z</time>
      </trkpt>
      <trkpt lat="51.221340540513" lon="4.451736641433">
        <ele>0</ele>
        <time>2020-06-14T13:59:01Z</time>
      </trkpt>
      <trkpt lat="51.22175234326" lon="4.451586186328">
        <ele>0</ele>
        <time>2020-06-14T13:59:11Z</time>
      </trkpt>
      <trkpt lat="51.222249892844" lon="4.451248982491">
        <ele>0</ele>
        <time>2020-06-14T13:59:24Z</time>
      </trkpt>
      <trkpt lat="51.222813072705" lon="4.451111770788">
        <ele>0</ele>
        <time>2020-06-14T13:59:38Z</time>
      </trkpt>
      <trkpt lat="51.223355968368" lon="4.451261387703">
        <ele>0</ele>
        <time>2020-06-14T13:59:53Z</time>
      </trkpt>
      <trkpt lat="51.223893667253" lon="4.451403125632">
        <ele>0</ele>
        <time>2020-06-14T14:00:08Z</time>
      </trkpt>
      <trkpt lat="51.224368501888" lon="4.450952682326">
        <ele>0</ele>
        <time>2020-06-14T14:00:24Z</time>
      </trkpt>
      <trkpt lat="51.224779131169" lon="4.450328817509">
        <ele>0</ele>
        <time>2020-06-14T14:00:41Z</time>
      </trkpt>
      <trkpt lat="51.225234603615" lon="4.449805619311">
        <ele>0</ele>
        <time>2020-06-14T14:01:01Z</time>
      </trkpt>
      <trkpt lat="51.225799376037" lon="4.449718866646">
        <ele>0</ele>
        <time>2020-06-14T14:01:18Z</time>
      </trkpt>
      <trkpt lat="51.226216459381" lon="4.44915023855">
        <ele>0</ele>
        <time>2020-06-14T14:01:33Z</time>
      </trkpt>
      <trkpt lat="51.226493816452" lon="4.448356388801">
        <ele>0</ele>
        <time>2020-06-14T14:01:49Z</time>
      </trkpt>
      <trkpt lat="51.226871085771" lon="4.447689776294">
        <ele>0</ele>
        <time>2020-06-14T14:02:05Z</time>
      </trkpt>
      <trkpt lat="51.227296718653" lon="4.447150233391">
        <ele>0</ele>
        <time>2020-06-14T14:02:21Z</time>
      </trkpt>
      <trkpt lat="51.227726542485" lon="4.446557884518">
        <ele>0</ele>
        <time>2020-06-14T14:02:38Z</time>
      </trkpt>
      <trkpt lat="51.228118061034" lon="4.445923458507">
        <ele>0</ele>
        <time>2020-06-14T14:02:57Z</time>
      </trkpt>
      <trkpt lat="51.228395082829" lon="4.445187360049">
        <ele>0</ele>
        <time>2020-06-14T14:03:14Z</time>
      </trkpt>
      <trkpt lat="51.228715103771" lon="4.444488980141">
        <ele>0</ele>
        <time>2020-06-14T14:03:31Z</time>
      </trkpt>
      <trkpt lat="51.22916026648" lon="4.443985563227">
        <ele>0</ele>
        <time>2020-06-14T14:03:48Z</time>
      </trkpt>
      <trkpt lat="51.229475174463" lon="4.44381935015">
        <ele>0</ele>
        <time>2020-06-14T14:03:58Z</time>
      </trkpt>
      <trkpt lat="51.229500823077" lon="4.443460185735">
        <ele>0.2</ele>
        <time>2020-06-14T14:04:10Z</time>
      </trkpt>
      <trkpt lat="51.229480203603" lon="4.443481056666">
        <ele>6.8</ele>
        <time>2020-06-14T14:04:50Z</time>
      </trkpt>
      <trkpt lat="51.229447095098" lon="4.443417689502">
        <ele>6.8</ele>
        <time>2020-06-14T14:04:55Z</time>
      </trkpt>
      <trkpt lat="51.229359252786" lon="4.443142260268">
        <ele>5</ele>
        <time>2020-06-14T14:05:04Z</time>
      </trkpt>
      <trkpt lat="51.229406778159" lon="4.443157934421">
        <ele>2.6</ele>
        <time>2020-06-14T14:06:36Z</time>
      </trkpt>
      <trkpt lat="51.229383560296" lon="4.443073277231">
        <ele>4.2</ele>
        <time>2020-06-14T14:06:44Z</time>
      </trkpt>
      <trkpt lat="51.228997406163" lon="4.442399623928">
        <ele>6.4</ele>
        <time>2020-06-14T14:07:01Z</time>
      </trkpt>
      <trkpt lat="51.228570515996" lon="4.441848178727">
        <ele>1</ele>
        <time>2020-06-14T14:07:13Z</time>
      </trkpt>
      <trkpt lat="51.228355101166" lon="4.441504604646">
        <ele>0.4</ele>
        <time>2020-06-14T14:07:22Z</time>
      </trkpt>
      <trkpt lat="51.22802116627" lon="4.440823910547">
        <ele>1.4</ele>
        <time>2020-06-14T14:07:36Z</time>
      </trkpt>
      <trkpt lat="51.227842967076" lon="4.440598437437">
        <ele>1.6</ele>
        <time>2020-06-14T14:07:44Z</time>
      </trkpt>
      <trkpt lat="51.227849756415" lon="4.440588295338">
        <ele>5.8</ele>
        <time>2020-06-14T14:08:15Z</time>
      </trkpt>
      <trkpt lat="51.227602993279" lon="4.439976668095">
        <ele>5.6</ele>
        <time>2020-06-14T14:08:33Z</time>
      </trkpt>
      <trkpt lat="51.227592767361" lon="4.439890166887">
        <ele>4.8</ele>
        <time>2020-06-14T14:08:36Z</time>
      </trkpt>
      <trkpt lat="51.227398894014" lon="4.439501079089">
        <ele>5.2</ele>
        <time>2020-06-14T14:08:51Z</time>
      </trkpt>
      <trkpt lat="51.22731205753" lon="4.439525889513">
        <ele>5.8</ele>
        <time>2020-06-14T14:08:56Z</time>
      </trkpt>
      <trkpt lat="51.227375676151" lon="4.43983124213">
        <ele>7.8</ele>
        <time>2020-06-14T14:15:52Z</time>
      </trkpt>
      <trkpt lat="51.22737995092" lon="4.439835768356">
        <ele>8</ele>
        <time>2020-06-14T14:15:57Z</time>
      </trkpt>
      <trkpt lat="51.227428733578" lon="4.439512981387">
        <ele>2.2</ele>
        <time>2020-06-14T14:16:07Z</time>
      </trkpt>
      <trkpt lat="51.227357487428" lon="4.439437628106">
        <ele>3.2</ele>
        <time>2020-06-14T14:16:11Z</time>
      </trkpt>
      <trkpt lat="51.227025228912" lon="4.43868292183">
        <ele>8</ele>
        <time>2020-06-14T14:16:31Z</time>
      </trkpt>
      <trkpt lat="51.226833199583" lon="4.437829392953">
        <ele>4.2</ele>
        <time>2020-06-14T14:16:46Z</time>
      </trkpt>
      <trkpt lat="51.226674614035" lon="4.437021880707">
        <ele>0</ele>
        <time>2020-06-14T14:17:02Z</time>
      </trkpt>
      <trkpt lat="51.2266272563" lon="4.436893469999">
        <ele>0</ele>
        <time>2020-06-14T14:17:07Z</time>
      </trkpt>
      <trkpt lat="51.226676122777" lon="4.436634972203">
        <ele>12.6</ele>
        <time>2020-06-14T14:18:34Z</time>
      </trkpt>
      <trkpt lat="51.226677380062" lon="4.436630110701">
        <ele>12.2</ele>
        <time>2020-06-14T14:18:35Z</time>
      </trkpt>
      <trkpt lat="51.226673943483" lon="4.436631619443">
        <ele>6.4</ele>
        <time>2020-06-14T14:18:44Z</time>
      </trkpt>
      <trkpt lat="51.226717697001" lon="4.4366486347">
        <ele>6.8</ele>
        <time>2020-06-14T14:18:50Z</time>
      </trkpt>
      <trkpt lat="51.226850717754" lon="4.436681659386">
        <ele>5.2</ele>
        <time>2020-06-14T14:18:56Z</time>
      </trkpt>
      <trkpt lat="51.227581787072" lon="4.435516072372">
        <ele>3.8</ele>
        <time>2020-06-14T14:19:38Z</time>
      </trkpt>
      <trkpt lat="51.227887558784" lon="4.434795815705">
        <ele>0</ele>
        <time>2020-06-14T14:19:52Z</time>
      </trkpt>
      <trkpt lat="51.228027536514" lon="4.433959050628">
        <ele>0.6</ele>
        <time>2020-06-14T14:20:08Z</time>
      </trkpt>
      <trkpt lat="51.228163155656" lon="4.433114993298">
        <ele>2.6</ele>
        <time>2020-06-14T14:20:25Z</time>
      </trkpt>
      <trkpt lat="51.228349066198" lon="4.432260039498">
        <ele>1.4</ele>
        <time>2020-06-14T14:20:41Z</time>
      </trkpt>
      <trkpt lat="51.228538580957" lon="4.431421346584">
        <ele>0.8</ele>
        <time>2020-06-14T14:20:56Z</time>
      </trkpt>
      <trkpt lat="51.228747541724" lon="4.430626742464">
        <ele>0.8</ele>
        <time>2020-06-14T14:21:15Z</time>
      </trkpt>
      <trkpt lat="51.229029592659" lon="4.429870359808">
        <ele>0.4</ele>
        <time>2020-06-14T14:21:37Z</time>
      </trkpt>
      <trkpt lat="51.229302674961" lon="4.429119928301">
        <ele>1</ele>
        <time>2020-06-14T14:21:53Z</time>
      </trkpt>
      <trkpt lat="51.229704000333" lon="4.428503607194">
        <ele>0.2</ele>
        <time>2020-06-14T14:22:13Z</time>
      </trkpt>
      <trkpt lat="51.229823610046" lon="4.427658795493">
        <ele>0.4</ele>
        <time>2020-06-14T14:22:30Z</time>
      </trkpt>
      <trkpt lat="51.229810115187" lon="4.426789927739">
        <ele>0</ele>
        <time>2020-06-14T14:22:46Z</time>
      </trkpt>
      <trkpt lat="51.229946656338" lon="4.425998257284">
        <ele>0</ele>
        <time>2020-06-14T14:23:04Z</time>
      </trkpt>
      <trkpt lat="51.230268437479" lon="4.425332063872">
        <ele>0</ele>
        <time>2020-06-14T14:23:23Z</time>
      </trkpt>
      <trkpt lat="51.230371199573" lon="4.424458669892">
        <ele>0.4</ele>
        <time>2020-06-14T14:23:41Z</time>
      </trkpt>
      <trkpt lat="51.23051142876" lon="4.423587874301">
        <ele>0</ele>
        <time>2020-06-14T14:23:59Z</time>
      </trkpt>
      <trkpt lat="51.230749642358" lon="4.422799137511">
        <ele>0.8</ele>
        <time>2020-06-14T14:24:18Z</time>
      </trkpt>
      <trkpt lat="51.230946030275" lon="4.421991792903">
        <ele>3.4</ele>
        <time>2020-06-14T14:24:35Z</time>
      </trkpt>
      <trkpt lat="51.231069076567" lon="4.42110440115">
        <ele>2.8</ele>
        <time>2020-06-14T14:24:52Z</time>
      </trkpt>
      <trkpt lat="51.231176616344" lon="4.420252381015">
        <ele>3.6</ele>
        <time>2020-06-14T14:25:09Z</time>
      </trkpt>
      <trkpt lat="51.231344673439" lon="4.4194238302">
        <ele>1.4</ele>
        <time>2020-06-14T14:25:29Z</time>
      </trkpt>
      <trkpt lat="51.231351127502" lon="4.419410335341">
        <ele>1</ele>
        <time>2020-06-14T14:25:30Z</time>
      </trkpt>
      <trkpt lat="51.231372166071" lon="4.41940874278">
        <ele>1.4</ele>
        <time>2020-06-14T14:25:33Z</time>
      </trkpt>
      <trkpt lat="51.231384906559" lon="4.419387033659">
        <ele>1.2</ele>
        <time>2020-06-14T14:25:35Z</time>
      </trkpt>
      <trkpt lat="51.231419859082" lon="4.418729641242">
        <ele>0.4</ele>
        <time>2020-06-14T14:25:51Z</time>
      </trkpt>
      <trkpt lat="51.231502588435" lon="4.418359747995">
        <ele>0.6</ele>
        <time>2020-06-14T14:26:00Z</time>
      </trkpt>
      <trkpt lat="51.231721858939" lon="4.418379361641">
        <ele>1.6</ele>
        <time>2020-06-14T14:26:13Z</time>
      </trkpt>
      <trkpt lat="51.231749519209" lon="4.418373661949">
        <ele>1.6</ele>
        <time>2020-06-14T14:26:15Z</time>
      </trkpt>
      <trkpt lat="51.232058308405" lon="4.418350192629">
        <ele>4.4</ele>
        <time>2020-06-14T14:26:29Z</time>
      </trkpt>
      <trkpt lat="51.232077586775" lon="4.417488617128">
        <ele>2.2</ele>
        <time>2020-06-14T14:26:48Z</time>
      </trkpt>
      <trkpt lat="51.232071803264" lon="4.416612624759">
        <ele>5.4</ele>
        <time>2020-06-14T14:27:07Z</time>
      </trkpt>
      <trkpt lat="51.232084627571" lon="4.415755491665">
        <ele>6</ele>
        <time>2020-06-14T14:27:27Z</time>
      </trkpt>
      <trkpt lat="51.232109605633" lon="4.414869860111">
        <ele>3.8</ele>
        <time>2020-06-14T14:27:44Z</time>
      </trkpt>
      <trkpt lat="51.23209896062" lon="4.414209953124">
        <ele>2.4</ele>
        <time>2020-06-14T14:27:56Z</time>
      </trkpt>
      <trkpt lat="51.232048082487" lon="4.413951371509">
        <ele>2</ele>
        <time>2020-06-14T14:28:02Z</time>
      </trkpt>
      <trkpt lat="51.231576265336" lon="4.413524900437">
        <ele>4.2</ele>
        <time>2020-06-14T14:28:21Z</time>
      </trkpt>
      <trkpt lat="51.231134706844" lon="4.412983764973">
        <ele>12.8</ele>
        <time>2020-06-14T14:28:41Z</time>
      </trkpt>
      <trkpt lat="51.231125738211" lon="4.41209637322">
        <ele>13.6</ele>
        <time>2020-06-14T14:28:59Z</time>
      </trkpt>
      <trkpt lat="51.23110738185" lon="4.411237563746">
        <ele>11.6</ele>
        <time>2020-06-14T14:29:17Z</time>
      </trkpt>
      <trkpt lat="51.23110235271" lon="4.411210490209">
        <ele>11.2</ele>
        <time>2020-06-14T14:29:18Z</time>
      </trkpt>
      <trkpt lat="51.23106631054" lon="4.411188026717">
        <ele>10.2</ele>
        <time>2020-06-14T14:29:20Z</time>
      </trkpt>
      <trkpt lat="51.230518469556" lon="4.411237982841">
        <ele>13.2</ele>
        <time>2020-06-14T14:29:44Z</time>
      </trkpt>
      <trkpt lat="51.229992337693" lon="4.411251393881">
        <ele>19.4</ele>
        <time>2020-06-14T14:30:02Z</time>
      </trkpt>
      <trkpt lat="51.22994816508" lon="4.410398367918">
        <ele>10.2</ele>
        <time>2020-06-14T14:30:18Z</time>
      </trkpt>
      <trkpt lat="51.229942800664" lon="4.41032863051">
        <ele>9.4</ele>
        <time>2020-06-14T14:30:20Z</time>
      </trkpt>
      <trkpt lat="51.229859903673" lon="4.410272723237">
        <ele>7</ele>
        <time>2020-06-14T14:30:27Z</time>
      </trkpt>
      <trkpt lat="51.229855796542" lon="4.410245565881">
        <ele>6.6</ele>
        <time>2020-06-14T14:30:29Z</time>
      </trkpt>
      <trkpt lat="51.229872057428" lon="4.410233831221">
        <ele>5.8</ele>
        <time>2020-06-14T14:30:31Z</time>
      </trkpt>
      <trkpt lat="51.229891251979" lon="4.410285128449">
        <ele>5.6</ele>
        <time>2020-06-14T14:30:34Z</time>
      </trkpt>
      <trkpt lat="51.22987524255" lon="4.410318991325">
        <ele>5.4</ele>
        <time>2020-06-14T14:30:36Z</time>
      </trkpt>
      <trkpt lat="51.22984842047" lon="4.41032443956">
        <ele>5</ele>
        <time>2020-06-14T14:30:38Z</time>
      </trkpt>
      <trkpt lat="51.22982159839" lon="4.410277668558">
        <ele>4.6</ele>
        <time>2020-06-14T14:30:40Z</time>
      </trkpt>
      <trkpt lat="51.229790250084" lon="4.409616252829">
        <ele>4</ele>
        <time>2020-06-14T14:30:55Z</time>
      </trkpt>
      <trkpt lat="51.229803074391" lon="4.409558250081">
        <ele>4.2</ele>
        <time>2020-06-14T14:30:57Z</time>
      </trkpt>
      <trkpt lat="51.229811707748" lon="4.409656905044">
        <ele>5</ele>
        <time>2020-06-14T14:31:01Z</time>
      </trkpt>
      <trkpt lat="51.229755549018" lon="4.40881569756">
        <ele>5</ele>
        <time>2020-06-14T14:31:21Z</time>
      </trkpt>
      <trkpt lat="51.229736438286" lon="4.407928389626">
        <ele>4.6</ele>
        <time>2020-06-14T14:31:37Z</time>
      </trkpt>
      <trkpt lat="51.229745826014" lon="4.407819257288">
        <ele>4</ele>
        <time>2020-06-14T14:31:39Z</time>
      </trkpt>
      <trkpt lat="51.230288218763" lon="4.407768714431">
        <ele>0</ele>
        <time>2020-06-14T14:31:59Z</time>
      </trkpt>
      <trkpt lat="51.23085341028" lon="4.407745161292">
        <ele>1.4</ele>
        <time>2020-06-14T14:32:16Z</time>
      </trkpt>
      <trkpt lat="51.2310528995" lon="4.407702245964">
        <ele>1.4</ele>
        <time>2020-06-14T14:32:23Z</time>
      </trkpt>
      <trkpt lat="51.231050133473" lon="4.407646590148">
        <ele>1.2</ele>
        <time>2020-06-14T14:32:25Z</time>
      </trkpt>
      <trkpt lat="51.231037392985" lon="4.407672993133">
        <ele>0</ele>
        <time>2020-06-14T14:32:27Z</time>
      </trkpt>
      <trkpt lat="51.231057006631" lon="4.407909781808">
        <ele>0</ele>
        <time>2020-06-14T14:32:35Z</time>
      </trkpt>
      <trkpt lat="51.231137808147" lon="4.407040243502">
        <ele>4.2</ele>
        <time>2020-06-14T14:33:01Z</time>
      </trkpt>
      <trkpt lat="51.23110989642" lon="4.406562810478">
        <ele>3</ele>
        <time>2020-06-14T14:33:12Z</time>
      </trkpt>
      <trkpt lat="51.230582171996" lon="4.406520062788">
        <ele>4.6</ele>
        <time>2020-06-14T14:33:29Z</time>
      </trkpt>
      <trkpt lat="51.230049250794" lon="4.406623998348">
        <ele>6.6</ele>
        <time>2020-06-14T14:33:49Z</time>
      </trkpt>
      <trkpt lat="51.229847833737" lon="4.406572784939">
        <ele>2.6</ele>
        <time>2020-06-14T14:33:59Z</time>
      </trkpt>
      <trkpt lat="51.22971766283" lon="4.406451917941">
        <ele>3</ele>
        <time>2020-06-14T14:34:07Z</time>
      </trkpt>
      <trkpt lat="51.229674160769" lon="4.405594281933">
        <ele>4.8</ele>
        <time>2020-06-14T14:34:33Z</time>
      </trkpt>
      <trkpt lat="51.229698887374" lon="4.405427314485">
        <ele>4.8</ele>
        <time>2020-06-14T14:34:37Z</time>
      </trkpt>
      <trkpt lat="51.229738785218" lon="4.405442653362">
        <ele>4.6</ele>
        <time>2020-06-14T14:34:39Z</time>
      </trkpt>
      <trkpt lat="51.229734258992" lon="4.405500069377">
        <ele>4</ele>
        <time>2020-06-14T14:34:41Z</time>
      </trkpt>
      <trkpt lat="51.229200667238" lon="4.405525634172">
        <ele>1.8</ele>
        <time>2020-06-14T14:35:07Z</time>
      </trkpt>
      <trkpt lat="51.229049373943" lon="4.40545623204">
        <ele>1.2</ele>
        <time>2020-06-14T14:35:13Z</time>
      </trkpt>
      <trkpt lat="51.228510920687" lon="4.405620182004">
        <ele>0</ele>
        <time>2020-06-14T14:35:33Z</time>
      </trkpt>
      <trkpt lat="51.22805972301" lon="4.405518509557">
        <ele>4</ele>
        <time>2020-06-14T14:35:47Z</time>
      </trkpt>
      <trkpt lat="51.228044719409" lon="4.405198740072">
        <ele>3.2</ele>
        <time>2020-06-14T14:35:53Z</time>
      </trkpt>
      <trkpt lat="51.228055699698" lon="4.404313527613">
        <ele>2.2</ele>
        <time>2020-06-14T14:36:12Z</time>
      </trkpt>
      <trkpt lat="51.228040277002" lon="4.403689662796">
        <ele>6.2</ele>
        <time>2020-06-14T14:36:48Z</time>
      </trkpt>
      <trkpt lat="51.22804463559" lon="4.403492101413">
        <ele>6.8</ele>
        <time>2020-06-14T14:37:11Z</time>
      </trkpt>
      <trkpt lat="51.228011527085" lon="4.403084489616">
        <ele>6.6</ele>
        <time>2020-06-14T14:37:22Z</time>
      </trkpt>
      <trkpt lat="51.227943717514" lon="4.403032354198">
        <ele>5.6</ele>
        <time>2020-06-14T14:37:26Z</time>
      </trkpt>
      <trkpt lat="51.227824107801" lon="4.402207239962">
        <ele>0</ele>
        <time>2020-06-14T14:37:46Z</time>
      </trkpt>
      <trkpt lat="51.227784293776" lon="4.4020146239">
        <ele>0</ele>
        <time>2020-06-14T14:37:52Z</time>
      </trkpt>
      <trkpt lat="51.227293365893" lon="4.401695022053">
        <ele>0.4</ele>
        <time>2020-06-14T14:38:08Z</time>
      </trkpt>
      <trkpt lat="51.226976194797" lon="4.401393860386">
        <ele>12.6</ele>
        <time>2020-06-14T14:38:24Z</time>
      </trkpt>
      <trkpt lat="51.226973093494" lon="4.401391597273">
        <ele>12.4</ele>
        <time>2020-06-14T14:38:30Z</time>
      </trkpt>
      <trkpt lat="51.226863206785" lon="4.401288499903">
        <ele>12.8</ele>
        <time>2020-06-14T14:38:39Z</time>
      </trkpt>
      <trkpt lat="51.226860943672" lon="4.401277519614">
        <ele>11.4</ele>
        <time>2020-06-14T14:38:43Z</time>
      </trkpt>
      <trkpt lat="51.226502617447" lon="4.400661198507">
        <ele>6</ele>
        <time>2020-06-14T14:39:01Z</time>
      </trkpt>
      <trkpt lat="51.22622995424" lon="4.400532536342">
        <ele>2.8</ele>
        <time>2020-06-14T14:39:14Z</time>
      </trkpt>
      <trkpt lat="51.226173963148" lon="4.400473527766">
        <ele>3</ele>
        <time>2020-06-14T14:39:17Z</time>
      </trkpt>
      <trkpt lat="51.225988806977" lon="4.400431869723">
        <ele>1</ele>
        <time>2020-06-14T14:39:24Z</time>
      </trkpt>
      <trkpt lat="51.225460076725" lon="4.400664215991">
        <ele>0</ele>
        <time>2020-06-14T14:39:40Z</time>
      </trkpt>
      <trkpt lat="51.224965293168" lon="4.401070654322">
        <ele>0</ele>
        <time>2020-06-14T14:39:57Z</time>
      </trkpt>
      <trkpt lat="51.224613504825" lon="4.400745017507">
        <ele>11</ele>
        <time>2020-06-14T14:40:12Z</time>
      </trkpt>
      <trkpt lat="51.225000916243" lon="4.400088714737">
        <ele>2.2</ele>
        <time>2020-06-14T14:40:29Z</time>
      </trkpt>
      <trkpt lat="51.225169895347" lon="4.399784787043">
        <ele>0</ele>
        <time>2020-06-14T14:40:38Z</time>
      </trkpt>
      <trkpt lat="51.225163441284" lon="4.399734663281">
        <ele>0</ele>
        <time>2020-06-14T14:40:40Z</time>
      </trkpt>
      <trkpt lat="51.224755326573" lon="4.399475159657">
        <ele>1.2</ele>
        <time>2020-06-14T14:41:00Z</time>
      </trkpt>
      <trkpt lat="51.224778628255" lon="4.399385892422">
        <ele>2.2</ele>
        <time>2020-06-14T14:41:04Z</time>
      </trkpt>
      <trkpt lat="51.224823974334" lon="4.399398716729">
        <ele>1.6</ele>
        <time>2020-06-14T14:41:06Z</time>
      </trkpt>
      <trkpt lat="51.224909553533" lon="4.399342055085">
        <ele>0</ele>
        <time>2020-06-14T14:41:12Z</time>
      </trkpt>
      <trkpt lat="51.22488968843" lon="4.399295284083">
        <ele>0</ele>
        <time>2020-06-14T14:41:14Z</time>
      </trkpt>
      <trkpt lat="51.224379817453" lon="4.398975849874">
        <ele>3.6</ele>
        <time>2020-06-14T14:41:32Z</time>
      </trkpt>
      <trkpt lat="51.223849578459" lon="4.398673682379">
        <ele>11.6</ele>
        <time>2020-06-14T14:41:49Z</time>
      </trkpt>
      <trkpt lat="51.223319255646" lon="4.398365312278">
        <ele>19.8</ele>
        <time>2020-06-14T14:42:04Z</time>
      </trkpt>
      <trkpt lat="51.222790106299" lon="4.398051326304">
        <ele>15</ele>
        <time>2020-06-14T14:42:20Z</time>
      </trkpt>
      <trkpt lat="51.222252994147" lon="4.397740860728">
        <ele>18.4</ele>
        <time>2020-06-14T14:42:36Z</time>
      </trkpt>
      <trkpt lat="51.221748822862" lon="4.397431568618">
        <ele>29.4</ele>
        <time>2020-06-14T14:42:51Z</time>
      </trkpt>
      <trkpt lat="51.221340959608" lon="4.397097549903">
        <ele>26.2</ele>
        <time>2020-06-14T14:43:07Z</time>
      </trkpt>
      <trkpt lat="51.221690401019" lon="4.396522300106">
        <ele>11.6</ele>
        <time>2020-06-14T14:43:26Z</time>
      </trkpt>
      <trkpt lat="51.221736836745" lon="4.396575106076">
        <ele>11</ele>
        <time>2020-06-14T14:43:27Z</time>
      </trkpt>
      <trkpt lat="51.222141598696" lon="4.397137280109">
        <ele>2.6</ele>
        <time>2020-06-14T14:43:47Z</time>
      </trkpt>
      <trkpt lat="51.222313511465" lon="4.397272899251">
        <ele>3.8</ele>
        <time>2020-06-14T14:43:55Z</time>
      </trkpt>
      <trkpt lat="51.222306722126" lon="4.397338529528">
        <ele>3.2</ele>
        <time>2020-06-14T14:43:57Z</time>
      </trkpt>
      <trkpt lat="51.222261627504" lon="4.397476411783">
        <ele>2.8</ele>
        <time>2020-06-14T14:44:01Z</time>
      </trkpt>
      <trkpt lat="51.222265566997" lon="4.397605576862">
        <ele>2.2</ele>
        <time>2020-06-14T14:44:05Z</time>
      </trkpt>
      <trkpt lat="51.222765295875" lon="4.39799801742">
        <ele>15.2</ele>
        <time>2020-06-14T14:44:25Z</time>
      </trkpt>
      <trkpt lat="51.223259241242" lon="4.398347710288">
        <ele>39</ele>
        <time>2020-06-14T14:44:42Z</time>
      </trkpt>
      <trkpt lat="51.223764585993" lon="4.398705030685">
        <ele>59.2</ele>
        <time>2020-06-14T14:45:03Z</time>
      </trkpt>
      <trkpt lat="51.22426104593" lon="4.399046257834">
        <ele>53.6</ele>
        <time>2020-06-14T14:45:24Z</time>
      </trkpt>
      <trkpt lat="51.224810479475" lon="4.399206435943">
        <ele>24.6</ele>
        <time>2020-06-14T14:45:46Z</time>
      </trkpt>
      <trkpt lat="51.225339964098" lon="4.399475411114">
        <ele>12</ele>
        <time>2020-06-14T14:46:07Z</time>
      </trkpt>
      <trkpt lat="51.226111182717" lon="4.399953179414">
        <ele>19</ele>
        <time>2020-06-14T14:46:38Z</time>
      </trkpt>
      <trkpt lat="51.225595192953" lon="4.399668362452">
        <ele>20.2</ele>
        <time>2020-06-14T14:46:58Z</time>
      </trkpt>
      <trkpt lat="51.225081717759" lon="4.399344821112">
        <ele>23</ele>
        <time>2020-06-14T14:47:16Z</time>
      </trkpt>
      <trkpt lat="51.224549718566" lon="4.39900216904">
        <ele>21</ele>
        <time>2020-06-14T14:47:33Z</time>
      </trkpt>
      <trkpt lat="51.22402551454" lon="4.398706204151">
        <ele>23</ele>
        <time>2020-06-14T14:47:49Z</time>
      </trkpt>
      <trkpt lat="51.223496951926" lon="4.39849087314">
        <ele>27.2</ele>
        <time>2020-06-14T14:48:05Z</time>
      </trkpt>
      <trkpt lat="51.223245746383" lon="4.398326839357">
        <ele>34.8</ele>
        <time>2020-06-14T14:48:13Z</time>
      </trkpt>
      <trkpt lat="51.222713076638" lon="4.398024923319">
        <ele>31.6</ele>
        <time>2020-06-14T14:48:31Z</time>
      </trkpt>
      <trkpt lat="51.222230195379" lon="4.397643127774">
        <ele>20.8</ele>
        <time>2020-06-14T14:48:50Z</time>
      </trkpt>
      <trkpt lat="51.221728706302" lon="4.397331488732">
        <ele>28</ele>
        <time>2020-06-14T14:49:05Z</time>
      </trkpt>
      <trkpt lat="51.221365686213" lon="4.397141806335">
        <ele>27.8</ele>
        <time>2020-06-14T14:49:19Z</time>
      </trkpt>
      <trkpt lat="51.220923038074" lon="4.396617015576">
        <ele>15.8</ele>
        <time>2020-06-14T14:49:44Z</time>
      </trkpt>
      <trkpt lat="51.22039279908" lon="4.396327001836">
        <ele>15.4</ele>
        <time>2020-06-14T14:50:05Z</time>
      </trkpt>
      <trkpt lat="51.219876641678" lon="4.395999856279">
        <ele>27.6</ele>
        <time>2020-06-14T14:50:21Z</time>
      </trkpt>
      <trkpt lat="51.219380852293" lon="4.395574474854">
        <ele>22.6</ele>
        <time>2020-06-14T14:50:37Z</time>
      </trkpt>
      <trkpt lat="51.219022945163" lon="4.395401472438">
        <ele>18.2</ele>
        <time>2020-06-14T14:50:52Z</time>
      </trkpt>
      <trkpt lat="51.219019927679" lon="4.395437011694">
        <ele>17.2</ele>
        <time>2020-06-14T14:50:54Z</time>
      </trkpt>
      <trkpt lat="51.219044821922" lon="4.395472299493">
        <ele>16.2</ele>
        <time>2020-06-14T14:50:56Z</time>
      </trkpt>
      <trkpt lat="51.219562823342" lon="4.39582207618">
        <ele>6.2</ele>
        <time>2020-06-14T14:51:13Z</time>
      </trkpt>
      <trkpt lat="51.220070515025" lon="4.396164141519">
        <ele>6</ele>
        <time>2020-06-14T14:51:29Z</time>
      </trkpt>
      <trkpt lat="51.220578374346" lon="4.396512996197">
        <ele>11.8</ele>
        <time>2020-06-14T14:51:46Z</time>
      </trkpt>
      <trkpt lat="51.221094028834" lon="4.39691088499">
        <ele>13.2</ele>
        <time>2020-06-14T14:52:02Z</time>
      </trkpt>
      <trkpt lat="51.221283878869" lon="4.397112972599">
        <ele>8.8</ele>
        <time>2020-06-14T14:52:11Z</time>
      </trkpt>
      <trkpt lat="51.221282034851" lon="4.397106434717">
        <ele>5.4</ele>
        <time>2020-06-14T14:52:23Z</time>
      </trkpt>
      <trkpt lat="51.221305504171" lon="4.397125964544">
        <ele>4.4</ele>
        <time>2020-06-14T14:52:33Z</time>
      </trkpt>
      <trkpt lat="51.22181185475" lon="4.397456462861">
        <ele>4.2</ele>
        <time>2020-06-14T14:52:51Z</time>
      </trkpt>
      <trkpt lat="51.222318372967" lon="4.39780355734">
        <ele>7.8</ele>
        <time>2020-06-14T14:53:09Z</time>
      </trkpt>
      <trkpt lat="51.222834362731" lon="4.398178060632">
        <ele>23.2</ele>
        <time>2020-06-14T14:53:26Z</time>
      </trkpt>
      <trkpt lat="51.223359572585" lon="4.398417866791">
        <ele>20</ele>
        <time>2020-06-14T14:53:45Z</time>
      </trkpt>
      <trkpt lat="51.223882100231" lon="4.398740569941">
        <ele>18.4</ele>
        <time>2020-06-14T14:54:03Z</time>
      </trkpt>
      <trkpt lat="51.224396413615" lon="4.399056232295">
        <ele>13.2</ele>
        <time>2020-06-14T14:54:19Z</time>
      </trkpt>
      <trkpt lat="51.224911397551" lon="4.399397124168">
        <ele>5.8</ele>
        <time>2020-06-14T14:54:32Z</time>
      </trkpt>
      <trkpt lat="51.225424034555" lon="4.399708930848">
        <ele>2.6</ele>
        <time>2020-06-14T14:54:50Z</time>
      </trkpt>
      <trkpt lat="51.225938599396" lon="4.400033478016">
        <ele>5.8</ele>
        <time>2020-06-14T14:55:06Z</time>
      </trkpt>
      <trkpt lat="51.226461210861" lon="4.400378728477">
        <ele>1.8</ele>
        <time>2020-06-14T14:55:24Z</time>
      </trkpt>
      <trkpt lat="51.226935207306" lon="4.400818107675">
        <ele>2.6</ele>
        <time>2020-06-14T14:55:44Z</time>
      </trkpt>
      <trkpt lat="51.227433427442" lon="4.401257067778">
        <ele>8.6</ele>
        <time>2020-06-14T14:56:00Z</time>
      </trkpt>
      <trkpt lat="51.22789795234" lon="4.401759730321">
        <ele>22</ele>
        <time>2020-06-14T14:56:24Z</time>
      </trkpt>
      <trkpt lat="51.228445038953" lon="4.401851763583">
        <ele>8</ele>
        <time>2020-06-14T14:56:48Z</time>
      </trkpt>
      <trkpt lat="51.229012577402" lon="4.401872550695">
        <ele>6</ele>
        <time>2020-06-14T14:57:10Z</time>
      </trkpt>
      <trkpt lat="51.229482215259" lon="4.401837430534">
        <ele>5.6</ele>
        <time>2020-06-14T14:57:31Z</time>
      </trkpt>
      <trkpt lat="51.229498224688" lon="4.402072961924">
        <ele>3</ele>
        <time>2020-06-14T14:58:08Z</time>
      </trkpt>
      <trkpt lat="51.229506858045" lon="4.402090480095">
        <ele>2.8</ele>
        <time>2020-06-14T14:58:09Z</time>
      </trkpt>
      <trkpt lat="51.22953996655" lon="4.402116715442">
        <ele>2.8</ele>
        <time>2020-06-14T14:58:11Z</time>
      </trkpt>
      <trkpt lat="51.229940789008" lon="4.40257202025">
        <ele>2.6</ele>
        <time>2020-06-14T14:58:34Z</time>
      </trkpt>
      <trkpt lat="51.230129633215" lon="4.402594735199">
        <ele>0</ele>
        <time>2020-06-14T15:04:54Z</time>
      </trkpt>
      <trkpt lat="51.230064589671" lon="4.4024756284">
        <ele>0</ele>
        <time>2020-06-14T15:05:02Z</time>
      </trkpt>
      <trkpt lat="51.22985344961" lon="4.402454841288">
        <ele>0</ele>
        <time>2020-06-14T15:05:08Z</time>
      </trkpt>
      <trkpt lat="51.229779521252" lon="4.403298898618">
        <ele>0</ele>
        <time>2020-06-14T15:05:30Z</time>
      </trkpt>
      <trkpt lat="51.229745993652" lon="4.404141531025">
        <ele>1</ele>
        <time>2020-06-14T15:05:49Z</time>
      </trkpt>
      <trkpt lat="51.229678184081" lon="4.40496756727">
        <ele>1.8</ele>
        <time>2020-06-14T15:06:08Z</time>
      </trkpt>
      <trkpt lat="51.229706514903" lon="4.405684554996">
        <ele>3.4</ele>
        <time>2020-06-14T15:06:25Z</time>
      </trkpt>
      <trkpt lat="51.229712801328" lon="4.40578983166">
        <ele>3.2</ele>
        <time>2020-06-14T15:06:27Z</time>
      </trkpt>
      <trkpt lat="51.229722021418" lon="4.406685186218">
        <ele>3.2</ele>
        <time>2020-06-14T15:06:43Z</time>
      </trkpt>
      <trkpt lat="51.229735013363" lon="4.406805550302">
        <ele>3.6</ele>
        <time>2020-06-14T15:06:46Z</time>
      </trkpt>
      <trkpt lat="51.229769295334" lon="4.406818206971">
        <ele>4.2</ele>
        <time>2020-06-14T15:06:48Z</time>
      </trkpt>
      <trkpt lat="51.230340186543" lon="4.406802700456">
        <ele>10.2</ele>
        <time>2020-06-14T15:07:06Z</time>
      </trkpt>
      <trkpt lat="51.230902109119" lon="4.406734387971">
        <ele>14.8</ele>
        <time>2020-06-14T15:07:24Z</time>
      </trkpt>
      <trkpt lat="51.231095563371" lon="4.406633134619">
        <ele>8.4</ele>
        <time>2020-06-14T15:07:31Z</time>
      </trkpt>
      <trkpt lat="51.23114174764" lon="4.406582256486">
        <ele>7.4</ele>
        <time>2020-06-14T15:07:34Z</time>
      </trkpt>
      <trkpt lat="51.231126744039" lon="4.407456823932">
        <ele>3.8</ele>
        <time>2020-06-14T15:07:55Z</time>
      </trkpt>
      <trkpt lat="51.230945946456" lon="4.408263078893">
        <ele>0</ele>
        <time>2020-06-14T15:08:11Z</time>
      </trkpt>
      <trkpt lat="51.230941001135" lon="4.409104118739">
        <ele>3.6</ele>
        <time>2020-06-14T15:08:28Z</time>
      </trkpt>
      <trkpt lat="51.230929601751" lon="4.409989415017">
        <ele>4.2</ele>
        <time>2020-06-14T15:08:44Z</time>
      </trkpt>
      <trkpt lat="51.230924069697" lon="4.410886697412">
        <ele>2</ele>
        <time>2020-06-14T15:08:59Z</time>
      </trkpt>
      <trkpt lat="51.230488294716" lon="4.411085683718">
        <ele>2.2</ele>
        <time>2020-06-14T15:09:15Z</time>
      </trkpt>
      <trkpt lat="51.230256116086" lon="4.41112826377">
        <ele>3.8</ele>
        <time>2020-06-14T15:09:24Z</time>
      </trkpt>
      <trkpt lat="51.230286710021" lon="4.411719774453">
        <ele>14.2</ele>
        <time>2020-06-14T15:09:39Z</time>
      </trkpt>
      <trkpt lat="51.230226695617" lon="4.412206259929">
        <ele>17.2</ele>
        <time>2020-06-14T15:10:02Z</time>
      </trkpt>
      <trkpt lat="51.230129297939" lon="4.412155800891">
        <ele>12</ele>
        <time>2020-06-14T15:10:07Z</time>
      </trkpt>
      <trkpt lat="51.230450492347" lon="4.411872241214">
        <ele>21.2</ele>
        <time>2020-06-14T15:10:27Z</time>
      </trkpt>
      <trkpt lat="51.230834551005" lon="4.411779118305">
        <ele>19.4</ele>
        <time>2020-06-14T15:10:41Z</time>
      </trkpt>
      <trkpt lat="51.230809237667" lon="4.412616721572">
        <ele>7.4</ele>
        <time>2020-06-14T15:10:57Z</time>
      </trkpt>
      <trkpt lat="51.230276232646" lon="4.412755106741">
        <ele>2.8</ele>
        <time>2020-06-14T15:11:16Z</time>
      </trkpt>
      <trkpt lat="51.229815814879" lon="4.413057022779">
        <ele>7.4</ele>
        <time>2020-06-14T15:11:37Z</time>
      </trkpt>
      <trkpt lat="51.230830192417" lon="4.414265776578">
        <ele>1.8</ele>
        <time>2020-06-14T15:13:19Z</time>
      </trkpt>
      <trkpt lat="51.230804962898" lon="4.414250102425">
        <ele>0</ele>
        <time>2020-06-14T15:13:28Z</time>
      </trkpt>
      <trkpt lat="51.230722149726" lon="4.413416019556">
        <ele>1.4</ele>
        <time>2020-06-14T15:13:49Z</time>
      </trkpt>
      <trkpt lat="51.230714103102" lon="4.413406296552">
        <ele>0.4</ele>
        <time>2020-06-14T15:13:57Z</time>
      </trkpt>
      <trkpt lat="51.23073187273" lon="4.413337564972">
        <ele>1.4</ele>
        <time>2020-06-14T15:14:08Z</time>
      </trkpt>
      <trkpt lat="51.231120206157" lon="4.413034643106">
        <ele>4.2</ele>
        <time>2020-06-14T15:14:31Z</time>
      </trkpt>
      <trkpt lat="51.231168485901" lon="4.413073451303">
        <ele>5</ele>
        <time>2020-06-14T15:14:33Z</time>
      </trkpt>
      <trkpt lat="51.231603674149" lon="4.413638894277">
        <ele>7</ele>
        <time>2020-06-14T15:14:49Z</time>
      </trkpt>
      <trkpt lat="51.232044981184" lon="4.414114986197">
        <ele>11.6</ele>
        <time>2020-06-14T15:15:08Z</time>
      </trkpt>
      <trkpt lat="51.232081274811" lon="4.414979243906">
        <ele>4.6</ele>
        <time>2020-06-14T15:15:27Z</time>
      </trkpt>
      <trkpt lat="51.23207884406" lon="4.415842914882">
        <ele>0.4</ele>
        <time>2020-06-14T15:15:43Z</time>
      </trkpt>
      <trkpt lat="51.23204280189" lon="4.416715973586">
        <ele>0</ele>
        <time>2020-06-14T15:15:56Z</time>
      </trkpt>
      <trkpt lat="51.232070965074" lon="4.41722861059">
        <ele>0</ele>
        <time>2020-06-14T15:16:03Z</time>
      </trkpt>
      <trkpt lat="51.23202939085" lon="4.417566987893">
        <ele>0</ele>
        <time>2020-06-14T15:16:10Z</time>
      </trkpt>
      <trkpt lat="51.231998210182" lon="4.417513343733">
        <ele>0</ele>
        <time>2020-06-14T15:16:12Z</time>
      </trkpt>
      <trkpt lat="51.232014471068" lon="4.417448635465">
        <ele>0</ele>
        <time>2020-06-14T15:16:14Z</time>
      </trkpt>
      <trkpt lat="51.232006005349" lon="4.418306942025">
        <ele>0</ele>
        <time>2020-06-14T15:16:35Z</time>
      </trkpt>
      <trkpt lat="51.2319749085" lon="4.418397298907">
        <ele>0</ele>
        <time>2020-06-14T15:16:37Z</time>
      </trkpt>
      <trkpt lat="51.231913552992" lon="4.418408614472">
        <ele>0</ele>
        <time>2020-06-14T15:16:39Z</time>
      </trkpt>
      <trkpt lat="51.231864518877" lon="4.418426887014">
        <ele>0</ele>
        <time>2020-06-14T15:16:41Z</time>
      </trkpt>
      <trkpt lat="51.23182990163" lon="4.418951342497">
        <ele>0</ele>
        <time>2020-06-14T15:16:50Z</time>
      </trkpt>
      <trkpt lat="51.231806097034" lon="4.419252504164">
        <ele>0</ele>
        <time>2020-06-14T15:16:54Z</time>
      </trkpt>
      <trkpt lat="51.231826465051" lon="4.419705881135">
        <ele>0</ele>
        <time>2020-06-14T15:17:01Z</time>
      </trkpt>
      <trkpt lat="51.231649606961" lon="4.419777211104">
        <ele>0</ele>
        <time>2020-06-14T15:17:10Z</time>
      </trkpt>
      <trkpt lat="51.231695204497" lon="4.420617748036">
        <ele>0</ele>
        <time>2020-06-14T15:17:34Z</time>
      </trkpt>
      <trkpt lat="51.231719595826" lon="4.420702991959">
        <ele>0</ele>
        <time>2020-06-14T15:17:37Z</time>
      </trkpt>
      <trkpt lat="51.231702832026" lon="4.420779015792">
        <ele>0</ele>
        <time>2020-06-14T15:17:40Z</time>
      </trkpt>
      <trkpt lat="51.231567799617" lon="4.420643061374">
        <ele>0.8</ele>
        <time>2020-06-14T15:17:48Z</time>
      </trkpt>
      <trkpt lat="51.231529661972" lon="4.420673487671">
        <ele>0.4</ele>
        <time>2020-06-14T15:17:51Z</time>
      </trkpt>
      <trkpt lat="51.231570565644" lon="4.420889489234">
        <ele>0</ele>
        <time>2020-06-14T15:17:58Z</time>
      </trkpt>
      <trkpt lat="51.231519603692" lon="4.420989904396">
        <ele>0</ele>
        <time>2020-06-14T15:18:01Z</time>
      </trkpt>
      <trkpt lat="51.231016186778" lon="4.420952269665">
        <ele>0</ele>
        <time>2020-06-14T15:18:22Z</time>
      </trkpt>
      <trkpt lat="51.231013672208" lon="4.420935841141">
        <ele>0</ele>
        <time>2020-06-14T15:18:23Z</time>
      </trkpt>
      <trkpt lat="51.231012079647" lon="4.420928632707">
        <ele>0</ele>
        <time>2020-06-14T15:18:24Z</time>
      </trkpt>
      <trkpt lat="51.2310696633" lon="4.420922262463">
        <ele>1.2</ele>
        <time>2020-06-14T15:21:10Z</time>
      </trkpt>
      <trkpt lat="51.23106631054" lon="4.420937433702">
        <ele>1.2</ele>
        <time>2020-06-14T15:21:11Z</time>
      </trkpt>
      <trkpt lat="51.230952903433" lon="4.421821724152">
        <ele>0</ele>
        <time>2020-06-14T15:21:38Z</time>
      </trkpt>
      <trkpt lat="51.230766825253" lon="4.422628984941">
        <ele>0</ele>
        <time>2020-06-14T15:21:54Z</time>
      </trkpt>
      <trkpt lat="51.230523079601" lon="4.423431635685">
        <ele>0</ele>
        <time>2020-06-14T15:22:11Z</time>
      </trkpt>
      <trkpt lat="51.230348652262" lon="4.42426102469">
        <ele>0</ele>
        <time>2020-06-14T15:22:21Z</time>
      </trkpt>
      <trkpt lat="51.230345215683" lon="4.424351297753">
        <ele>0</ele>
        <time>2020-06-14T15:22:22Z</time>
      </trkpt>
      <trkpt lat="51.230345802416" lon="4.424521282685">
        <ele>0</ele>
        <time>2020-06-14T15:22:24Z</time>
      </trkpt>
      <trkpt lat="51.230308419142" lon="4.425029058187">
        <ele>0</ele>
        <time>2020-06-14T15:22:31Z</time>
      </trkpt>
      <trkpt lat="51.230293415541" lon="4.425173310686">
        <ele>0</ele>
        <time>2020-06-14T15:22:34Z</time>
      </trkpt>
      <trkpt lat="51.230210015636" lon="4.425099633785">
        <ele>0</ele>
        <time>2020-06-14T15:22:38Z</time>
      </trkpt>
      <trkpt lat="51.23025829538" lon="4.425061831416">
        <ele>0</ele>
        <time>2020-06-14T15:22:40Z</time>
      </trkpt>
      <trkpt lat="51.230293583179" lon="4.425156798343">
        <ele>0</ele>
        <time>2020-06-14T15:22:43Z</time>
      </trkpt>
      <trkpt lat="51.230288554039" lon="4.425276743332">
        <ele>0</ele>
        <time>2020-06-14T15:22:46Z</time>
      </trkpt>
      <trkpt lat="51.230070792277" lon="4.426067156502">
        <ele>0</ele>
        <time>2020-06-14T15:23:02Z</time>
      </trkpt>
      <trkpt lat="51.229995438996" lon="4.426958906843">
        <ele>0</ele>
        <time>2020-06-14T15:23:20Z</time>
      </trkpt>
      <trkpt lat="51.229791842645" lon="4.427794666092">
        <ele>0.8</ele>
        <time>2020-06-14T15:23:37Z</time>
      </trkpt>
      <trkpt lat="51.229640046436" lon="4.428619109776">
        <ele>0</ele>
        <time>2020-06-14T15:23:53Z</time>
      </trkpt>
      <trkpt lat="51.229122631749" lon="4.429556960567">
        <ele>0</ele>
        <time>2020-06-14T15:24:19Z</time>
      </trkpt>
      <trkpt lat="51.228809651603" lon="4.430286269686">
        <ele>0</ele>
        <time>2020-06-14T15:24:36Z</time>
      </trkpt>
      <trkpt lat="51.228620975034" lon="4.431101996194">
        <ele>0</ele>
        <time>2020-06-14T15:24:50Z</time>
      </trkpt>
      <trkpt lat="51.228445122772" lon="4.431953178139">
        <ele>0</ele>
        <time>2020-06-14T15:25:02Z</time>
      </trkpt>
      <trkpt lat="51.22825753585" lon="4.432781058402">
        <ele>0</ele>
        <time>2020-06-14T15:25:14Z</time>
      </trkpt>
      <trkpt lat="51.228057459897" lon="4.433338957666">
        <ele>0</ele>
        <time>2020-06-14T15:25:24Z</time>
      </trkpt>
      <trkpt lat="51.228015215121" lon="4.433759477589">
        <ele>0</ele>
        <time>2020-06-14T15:25:30Z</time>
      </trkpt>
      <trkpt lat="51.227985375557" lon="4.433891073419">
        <ele>0</ele>
        <time>2020-06-14T15:25:32Z</time>
      </trkpt>
      <trkpt lat="51.22778898764" lon="4.434729598695">
        <ele>0</ele>
        <time>2020-06-14T15:25:48Z</time>
      </trkpt>
      <trkpt lat="51.227509618913" lon="4.435498302744">
        <ele>0.2</ele>
        <time>2020-06-14T15:26:07Z</time>
      </trkpt>
      <trkpt lat="51.227106365704" lon="4.436106744865">
        <ele>0.6</ele>
        <time>2020-06-14T15:26:22Z</time>
      </trkpt>
      <trkpt lat="51.226883323345" lon="4.436699512833">
        <ele>1.4</ele>
        <time>2020-06-14T15:26:39Z</time>
      </trkpt>
      <trkpt lat="51.226836552343" lon="4.436707475638">
        <ele>2.8</ele>
        <time>2020-06-14T15:26:41Z</time>
      </trkpt>
      <trkpt lat="51.22664318191" lon="4.43664779651">
        <ele>3.4</ele>
        <time>2020-06-14T15:26:49Z</time>
      </trkpt>
      <trkpt lat="51.226622310979" lon="4.436711666588">
        <ele>3.4</ele>
        <time>2020-06-14T15:26:52Z</time>
      </trkpt>
      <trkpt lat="51.226608145568" lon="4.436819290184">
        <ele>1.6</ele>
        <time>2020-06-14T15:27:08Z</time>
      </trkpt>
      <trkpt lat="51.226866056631" lon="4.437635100511">
        <ele>0.6</ele>
        <time>2020-06-14T15:27:23Z</time>
      </trkpt>
      <trkpt lat="51.227003938886" lon="4.438486617732">
        <ele>0</ele>
        <time>2020-06-14T15:27:40Z</time>
      </trkpt>
      <trkpt lat="51.227237542439" lon="4.439294884349">
        <ele>3.2</ele>
        <time>2020-06-14T15:27:57Z</time>
      </trkpt>
      <trkpt lat="51.227299987594" lon="4.439591100695">
        <ele>3.4</ele>
        <time>2020-06-14T15:28:04Z</time>
      </trkpt>
      <trkpt lat="51.227272243505" lon="4.439454308087">
        <ele>5.2</ele>
        <time>2020-06-14T15:35:34Z</time>
      </trkpt>
      <trkpt lat="51.227317757222" lon="4.439440226495">
        <ele>5.2</ele>
        <time>2020-06-14T15:35:38Z</time>
      </trkpt>
      <trkpt lat="51.227375173237" lon="4.439484650565">
        <ele>5</ele>
        <time>2020-06-14T15:35:41Z</time>
      </trkpt>
      <trkpt lat="51.227690416496" lon="4.440186215595">
        <ele>4.6</ele>
        <time>2020-06-14T15:35:58Z</time>
      </trkpt>
      <trkpt lat="51.227684130071" lon="4.44022183867">
        <ele>4.6</ele>
        <time>2020-06-14T15:35:59Z</time>
      </trkpt>
      <trkpt lat="51.227243745045" lon="4.440765991618">
        <ele>0.6</ele>
        <time>2020-06-14T15:36:20Z</time>
      </trkpt>
      <trkpt lat="51.226789194608" lon="4.441217776028">
        <ele>0</ele>
        <time>2020-06-14T15:36:39Z</time>
      </trkpt>
      <trkpt lat="51.226270606455" lon="4.441446518079">
        <ele>3.4</ele>
        <time>2020-06-14T15:36:58Z</time>
      </trkpt>
      <trkpt lat="51.225828377411" lon="4.441978181996">
        <ele>2.6</ele>
        <time>2020-06-14T15:37:14Z</time>
      </trkpt>
      <trkpt lat="51.225410036782" lon="4.442490064629">
        <ele>0</ele>
        <time>2020-06-14T15:37:33Z</time>
      </trkpt>
      <trkpt lat="51.225382711788" lon="4.442529962473">
        <ele>0</ele>
        <time>2020-06-14T15:37:40Z</time>
      </trkpt>
      <trkpt lat="51.225403750357" lon="4.442565082634">
        <ele>6.6</ele>
        <time>2020-06-14T15:39:12Z</time>
      </trkpt>
      <trkpt lat="51.225400565235" lon="4.442567178109">
        <ele>7.4</ele>
        <time>2020-06-14T15:39:20Z</time>
      </trkpt>
      <trkpt lat="51.225367121454" lon="4.442601543899">
        <ele>7.2</ele>
        <time>2020-06-14T15:39:23Z</time>
      </trkpt>
      <trkpt lat="51.224913660664" lon="4.443145864485">
        <ele>6.2</ele>
        <time>2020-06-14T15:39:41Z</time>
      </trkpt>
      <trkpt lat="51.224488027782" lon="4.443686245578">
        <ele>4.4</ele>
        <time>2020-06-14T15:39:56Z</time>
      </trkpt>
      <trkpt lat="51.224208659055" lon="4.444040967586">
        <ele>2.6</ele>
        <time>2020-06-14T15:40:05Z</time>
      </trkpt>
      <trkpt lat="51.223757712835" lon="4.444597441927">
        <ele>1.2</ele>
        <time>2020-06-14T15:40:19Z</time>
      </trkpt>
      <trkpt lat="51.22331724399" lon="4.445168249317">
        <ele>1.6</ele>
        <time>2020-06-14T15:40:34Z</time>
      </trkpt>
      <trkpt lat="51.222876272231" lon="4.445723801649">
        <ele>3.4</ele>
        <time>2020-06-14T15:40:49Z</time>
      </trkpt>
      <trkpt lat="51.222426667115" lon="4.446283712569">
        <ele>2.4</ele>
        <time>2020-06-14T15:41:04Z</time>
      </trkpt>
      <trkpt lat="51.221983096967" lon="4.446848317353">
        <ele>1.6</ele>
        <time>2020-06-14T15:41:19Z</time>
      </trkpt>
      <trkpt lat="51.221538940086" lon="4.447413844146">
        <ele>1.6</ele>
        <time>2020-06-14T15:41:34Z</time>
      </trkpt>
      <trkpt lat="51.221101740182" lon="4.447963612967">
        <ele>0.4</ele>
        <time>2020-06-14T15:41:49Z</time>
      </trkpt>
      <trkpt lat="51.221137866171" lon="4.448550010691">
        <ele>2</ele>
        <time>2020-06-14T15:42:01Z</time>
      </trkpt>
      <trkpt lat="51.220917673658" lon="4.448277096027">
        <ele>1.6</ele>
        <time>2020-06-14T15:42:08Z</time>
      </trkpt>
      <trkpt lat="51.220633275791" lon="4.447707043008">
        <ele>0</ele>
        <time>2020-06-14T15:42:24Z</time>
      </trkpt>
      <trkpt lat="51.220599748191" lon="4.447757334408">
        <ele>1.6</ele>
        <time>2020-06-14T15:43:45Z</time>
      </trkpt>
      <trkpt lat="51.220440995005" lon="4.447659769092">
        <ele>0</ele>
        <time>2020-06-14T15:43:54Z</time>
      </trkpt>
      <trkpt lat="51.220249720047" lon="4.44845956999">
        <ele>0</ele>
        <time>2020-06-14T15:44:16Z</time>
      </trkpt>
      <trkpt lat="51.220028773163" lon="4.449028952457">
        <ele>0</ele>
        <time>2020-06-14T15:44:33Z</time>
      </trkpt>
      <trkpt lat="51.219816459636" lon="4.448897272808">
        <ele>0</ele>
        <time>2020-06-14T15:44:39Z</time>
      </trkpt>
      <trkpt lat="51.219738759423" lon="4.448859805715">
        <ele>0</ele>
        <time>2020-06-14T15:44:41Z</time>
      </trkpt>
      <trkpt lat="51.219502976576" lon="4.448754361413">
        <ele>8</ele>
        <time>2020-06-14T15:44:48Z</time>
      </trkpt>
      <trkpt lat="51.219410608038" lon="4.448693425">
        <ele>11.6</ele>
        <time>2020-06-14T15:44:51Z</time>
      </trkpt>
      <trkpt lat="51.218895959378" lon="4.44847801017">
        <ele>17.6</ele>
        <time>2020-06-14T15:45:05Z</time>
      </trkpt>
      <trkpt lat="51.218676353598" lon="4.448263936444">
        <ele>15.6</ele>
        <time>2020-06-14T15:45:11Z</time>
      </trkpt>
      <trkpt lat="51.218393045378" lon="4.447997308205">
        <ele>14.2</ele>
        <time>2020-06-14T15:45:19Z</time>
      </trkpt>
      <trkpt lat="51.217981074993" lon="4.447385429505">
        <ele>11.2</ele>
        <time>2020-06-14T15:45:34Z</time>
      </trkpt>
      <trkpt lat="51.217659629128" lon="4.446954599845">
        <ele>2.4</ele>
        <time>2020-06-14T15:45:57Z</time>
      </trkpt>
      <trkpt lat="51.217649822305" lon="4.447013776059">
        <ele>1</ele>
        <time>2020-06-14T15:46:42Z</time>
      </trkpt>
      <trkpt lat="51.217620234198" lon="4.447245954689">
        <ele>0</ele>
        <time>2020-06-14T15:46:58Z</time>
      </trkpt>
      <trkpt lat="51.217649738486" lon="4.447258359901">
        <ele>0</ele>
        <time>2020-06-14T15:47:15Z</time>
      </trkpt>
      <trkpt lat="51.217634986342" lon="4.447330360422">
        <ele>2.2</ele>
        <time>2020-06-14T15:47:50Z</time>
      </trkpt>
      <trkpt lat="51.217844785299" lon="4.448117085556">
        <ele>4</ele>
        <time>2020-06-14T15:48:10Z</time>
      </trkpt>
      <trkpt lat="51.218039580655" lon="4.448945804009">
        <ele>4</ele>
        <time>2020-06-14T15:48:27Z</time>
      </trkpt>
      <trkpt lat="51.21815147902" lon="4.449835626513">
        <ele>3.6</ele>
        <time>2020-06-14T15:48:42Z</time>
      </trkpt>
      <trkpt lat="51.218273184208" lon="4.450675241436">
        <ele>4</ele>
        <time>2020-06-14T15:48:57Z</time>
      </trkpt>
      <trkpt lat="51.218448868832" lon="4.451548970692">
        <ele>3</ele>
        <time>2020-06-14T15:49:12Z</time>
      </trkpt>
      <trkpt lat="51.218690602828" lon="4.452309125203">
        <ele>1.6</ele>
        <time>2020-06-14T15:49:23Z</time>
      </trkpt>
      <trkpt lat="51.218814822586" lon="4.452629984335">
        <ele>1</ele>
        <time>2020-06-14T15:49:27Z</time>
      </trkpt>
      <trkpt lat="51.219132580415" lon="4.453404388076">
        <ele>0</ele>
        <time>2020-06-14T15:49:36Z</time>
      </trkpt>
      <trkpt lat="51.219367441253" lon="4.453873858295">
        <ele>0</ele>
        <time>2020-06-14T15:49:42Z</time>
      </trkpt>
      <trkpt lat="51.219503982404" lon="4.454131350263">
        <ele>0</ele>
        <time>2020-06-14T15:49:46Z</time>
      </trkpt>
      <trkpt lat="51.219539270203" lon="4.454269316337">
        <ele>0</ele>
        <time>2020-06-14T15:49:48Z</time>
      </trkpt>
      <trkpt lat="51.219741190174" lon="4.455075655117">
        <ele>1.6</ele>
        <time>2020-06-14T15:50:01Z</time>
      </trkpt>
      <trkpt lat="51.219998179228" lon="4.455640595177">
        <ele>7.2</ele>
        <time>2020-06-14T15:50:15Z</time>
      </trkpt>
      <trkpt lat="51.219503982404" lon="4.456000011049">
        <ele>6.6</ele>
        <time>2020-06-14T15:50:32Z</time>
      </trkpt>
      <trkpt lat="51.218994614341" lon="4.456355571247">
        <ele>0</ele>
        <time>2020-06-14T15:50:45Z</time>
      </trkpt>
      <trkpt lat="51.218499830784" lon="4.456741473923">
        <ele>0</ele>
        <time>2020-06-14T15:50:57Z</time>
      </trkpt>
      <trkpt lat="51.218033629506" lon="4.457178338551">
        <ele>0</ele>
        <time>2020-06-14T15:51:11Z</time>
      </trkpt>
      <trkpt lat="51.217979314794" lon="4.458035136369">
        <ele>0</ele>
        <time>2020-06-14T15:51:26Z</time>
      </trkpt>
      <trkpt lat="51.217946206289" lon="4.458972819522">
        <ele>0</ele>
        <time>2020-06-14T15:51:41Z</time>
      </trkpt>
      <trkpt lat="51.217899854382" lon="4.459835819946">
        <ele>0</ele>
        <time>2020-06-14T15:51:54Z</time>
      </trkpt>
      <trkpt lat="51.21789918383" lon="4.460727402649">
        <ele>0</ele>
        <time>2020-06-14T15:52:08Z</time>
      </trkpt>
      <trkpt lat="51.217874373406" lon="4.461592750005">
        <ele>0</ele>
        <time>2020-06-14T15:52:23Z</time>
      </trkpt>
      <trkpt lat="51.217852999561" lon="4.46245399023">
        <ele>0</ele>
        <time>2020-06-14T15:52:36Z</time>
      </trkpt>
      <trkpt lat="51.217803462532" lon="4.463356385584">
        <ele>0</ele>
        <time>2020-06-14T15:52:51Z</time>
      </trkpt>
      <trkpt lat="51.217757697358" lon="4.46417311792">
        <ele>0</ele>
        <time>2020-06-14T15:53:04Z</time>
      </trkpt>
      <trkpt lat="51.217728360708" lon="4.464367829457">
        <ele>0</ele>
        <time>2020-06-14T15:53:07Z</time>
      </trkpt>
      <trkpt lat="51.217647810649" lon="4.465269889535">
        <ele>0</ele>
        <time>2020-06-14T15:53:21Z</time>
      </trkpt>
      <trkpt lat="51.217632807048" lon="4.465675405857">
        <ele>0</ele>
        <time>2020-06-14T15:53:27Z</time>
      </trkpt>
      <trkpt lat="51.217613109583" lon="4.466586686025">
        <ele>0</ele>
        <time>2020-06-14T15:53:40Z</time>
      </trkpt>
      <trkpt lat="51.21761839018" lon="4.467449770268">
        <ele>0</ele>
        <time>2020-06-14T15:53:55Z</time>
      </trkpt>
      <trkpt lat="51.217580587811" lon="4.468339173677">
        <ele>0</ele>
        <time>2020-06-14T15:54:10Z</time>
      </trkpt>
      <trkpt lat="51.217518897027" lon="4.468581578225">
        <ele>0</ele>
        <time>2020-06-14T15:54:14Z</time>
      </trkpt>
      <trkpt lat="51.217501797951" lon="4.468725830724">
        <ele>0</ele>
        <time>2020-06-14T15:54:16Z</time>
      </trkpt>
      <trkpt lat="51.217487883997" lon="4.469620598549">
        <ele>0</ele>
        <time>2020-06-14T15:54:34Z</time>
      </trkpt>
      <trkpt lat="51.217480759382" lon="4.470485107715">
        <ele>0</ele>
        <time>2020-06-14T15:54:49Z</time>
      </trkpt>
      <trkpt lat="51.217427199041" lon="4.47138658106">
        <ele>0</ele>
        <time>2020-06-14T15:55:05Z</time>
      </trkpt>
      <trkpt lat="51.217412530716" lon="4.47229517902">
        <ele>0</ele>
        <time>2020-06-14T15:55:21Z</time>
      </trkpt>
      <trkpt lat="51.217375231261" lon="4.473175613796">
        <ele>0</ele>
        <time>2020-06-14T15:55:37Z</time>
      </trkpt>
      <trkpt lat="51.217318821074" lon="4.474032327795">
        <ele>0</ele>
        <time>2020-06-14T15:55:56Z</time>
      </trkpt>
      <trkpt lat="51.217239193024" lon="4.474915863874">
        <ele>0</ele>
        <time>2020-06-14T15:56:15Z</time>
      </trkpt>
      <trkpt lat="51.217230559667" lon="4.475809877328">
        <ele>0</ele>
        <time>2020-06-14T15:56:31Z</time>
      </trkpt>
      <trkpt lat="51.217196696791" lon="4.476688216629">
        <ele>0</ele>
        <time>2020-06-14T15:56:47Z</time>
      </trkpt>
      <trkpt lat="51.217204408139" lon="4.477521796584">
        <ele>1.6</ele>
        <time>2020-06-14T15:57:01Z</time>
      </trkpt>
      <trkpt lat="51.21718420776" lon="4.477680046856">
        <ele>1.2</ele>
        <time>2020-06-14T15:57:03Z</time>
      </trkpt>
      <trkpt lat="51.217155960757" lon="4.47783980587">
        <ele>0</ele>
        <time>2020-06-14T15:57:05Z</time>
      </trkpt>
      <trkpt lat="51.217123271347" lon="4.478705237045">
        <ele>0</ele>
        <time>2020-06-14T15:57:18Z</time>
      </trkpt>
      <trkpt lat="51.217089576109" lon="4.479365060213">
        <ele>0</ele>
        <time>2020-06-14T15:57:27Z</time>
      </trkpt>
      <trkpt lat="51.217109525031" lon="4.479505876133">
        <ele>0</ele>
        <time>2020-06-14T15:57:29Z</time>
      </trkpt>
      <trkpt lat="51.217019419606" lon="4.480939767766">
        <ele>0</ele>
        <time>2020-06-14T15:57:54Z</time>
      </trkpt>
      <trkpt lat="51.216788833537" lon="4.481678213156">
        <ele>0</ele>
        <time>2020-06-14T15:58:13Z</time>
      </trkpt>
      <trkpt lat="51.216707193831" lon="4.481695982784">
        <ele>0</ele>
        <time>2020-06-14T15:58:18Z</time>
      </trkpt>
      <trkpt lat="51.217001733797" lon="4.481121571177">
        <ele>11.2</ele>
        <time>2020-06-14T16:10:28Z</time>
      </trkpt>
      <trkpt lat="51.217109273574" lon="4.480264018988">
        <ele>0</ele>
        <time>2020-06-14T16:10:54Z</time>
      </trkpt>
      <trkpt lat="51.217159984069" lon="4.479388613352">
        <ele>0</ele>
        <time>2020-06-14T16:11:12Z</time>
      </trkpt>
      <trkpt lat="51.217190661823" lon="4.47851119606">
        <ele>0</ele>
        <time>2020-06-14T16:11:28Z</time>
      </trkpt>
      <trkpt lat="51.217235756445" lon="4.477652805681">
        <ele>0</ele>
        <time>2020-06-14T16:11:48Z</time>
      </trkpt>
      <trkpt lat="51.217274983737" lon="4.477201272728">
        <ele>0</ele>
        <time>2020-06-14T16:12:00Z</time>
      </trkpt>
      <trkpt lat="51.217814442821" lon="4.477184425109">
        <ele>0</ele>
        <time>2020-06-14T16:12:21Z</time>
      </trkpt>
      <trkpt lat="51.218359433959" lon="4.477248546644">
        <ele>0</ele>
        <time>2020-06-14T16:12:43Z</time>
      </trkpt>
      <trkpt lat="51.218719520383" lon="4.476786703954">
        <ele>0</ele>
        <time>2020-06-14T16:13:05Z</time>
      </trkpt>
      <trkpt lat="51.218796969139" lon="4.475909286662">
        <ele>0</ele>
        <time>2020-06-14T16:13:23Z</time>
      </trkpt>
      <trkpt lat="51.218871148954" lon="4.475037233786">
        <ele>0</ele>
        <time>2020-06-14T16:13:40Z</time>
      </trkpt>
      <trkpt lat="51.218971731754" lon="4.474160570865">
        <ele>0</ele>
        <time>2020-06-14T16:13:58Z</time>
      </trkpt>
      <trkpt lat="51.219105171602" lon="4.473333025878">
        <ele>0</ele>
        <time>2020-06-14T16:14:17Z</time>
      </trkpt>
      <trkpt lat="51.219279012208" lon="4.472474886956">
        <ele>0</ele>
        <time>2020-06-14T16:14:35Z</time>
      </trkpt>
      <trkpt lat="51.21940373488" lon="4.471598056397">
        <ele>0</ele>
        <time>2020-06-14T16:14:53Z</time>
      </trkpt>
      <trkpt lat="51.219532397045" lon="4.470767410107">
        <ele>0</ele>
        <time>2020-06-14T16:15:09Z</time>
      </trkpt>
      <trkpt lat="51.219613366199" lon="4.470478569833">
        <ele>0</ele>
        <time>2020-06-14T16:15:15Z</time>
      </trkpt>
      <trkpt lat="51.21972559984" lon="4.470455854884">
        <ele>0</ele>
        <time>2020-06-14T16:15:20Z</time>
      </trkpt>
      <trkpt lat="51.21998795331" lon="4.4696817026">
        <ele>0</ele>
        <time>2020-06-14T16:15:36Z</time>
      </trkpt>
      <trkpt lat="51.220094487259" lon="4.468810571733">
        <ele>10.2</ele>
        <time>2020-06-14T16:15:55Z</time>
      </trkpt>
      <trkpt lat="51.220104294082" lon="4.46868928564">
        <ele>11</ele>
        <time>2020-06-14T16:15:58Z</time>
      </trkpt>
      <trkpt lat="51.220129355963" lon="4.46781672985">
        <ele>10.6</ele>
        <time>2020-06-14T16:16:18Z</time>
      </trkpt>
      <trkpt lat="51.220140252433" lon="4.466920872378">
        <ele>8.2</ele>
        <time>2020-06-14T16:16:33Z</time>
      </trkpt>
      <trkpt lat="51.220088368472" lon="4.466028200028">
        <ele>0</ele>
        <time>2020-06-14T16:16:50Z</time>
      </trkpt>
      <trkpt lat="51.220126673755" lon="4.465171234572">
        <ele>0</ele>
        <time>2020-06-14T16:17:05Z</time>
      </trkpt>
      <trkpt lat="51.220171181644" lon="4.464313347107">
        <ele>0</ele>
        <time>2020-06-14T16:17:20Z</time>
      </trkpt>
      <trkpt lat="51.220055092329" lon="4.463462751895">
        <ele>0</ele>
        <time>2020-06-14T16:17:38Z</time>
      </trkpt>
      <trkpt lat="51.219988037129" lon="4.462564379853">
        <ele>0</ele>
        <time>2020-06-14T16:17:55Z</time>
      </trkpt>
      <trkpt lat="51.220020726539" lon="4.461802632781">
        <ele>0</ele>
        <time>2020-06-14T16:18:07Z</time>
      </trkpt>
      <trkpt lat="51.220229687306" lon="4.460965951523">
        <ele>0</ele>
        <time>2020-06-14T16:18:22Z</time>
      </trkpt>
      <trkpt lat="51.220388775768" lon="4.46012046927">
        <ele>1.8</ele>
        <time>2020-06-14T16:18:39Z</time>
      </trkpt>
      <trkpt lat="51.220424901757" lon="4.459624763704">
        <ele>2</ele>
        <time>2020-06-14T16:18:49Z</time>
      </trkpt>
      <trkpt lat="51.220421884273" lon="4.459610095379">
        <ele>3.4</ele>
        <time>2020-06-14T16:18:52Z</time>
      </trkpt>
      <trkpt lat="51.220414172925" lon="4.459605401515">
        <ele>5</ele>
        <time>2020-06-14T16:18:55Z</time>
      </trkpt>
      <trkpt lat="51.220418196237" lon="4.459617974365">
        <ele>7.4</ele>
        <time>2020-06-14T16:19:25Z</time>
      </trkpt>
      <trkpt lat="51.22041375383" lon="4.45950439962">
        <ele>7.4</ele>
        <time>2020-06-14T16:19:33Z</time>
      </trkpt>
      <trkpt lat="51.220445940326" lon="4.458626479414">
        <ele>4.6</ele>
        <time>2020-06-14T16:19:49Z</time>
      </trkpt>
      <trkpt lat="51.220480306116" lon="4.457721988585">
        <ele>0</ele>
        <time>2020-06-14T16:20:04Z</time>
      </trkpt>
      <trkpt lat="51.22049338188" lon="4.456832836633">
        <ele>0</ele>
        <time>2020-06-14T16:20:18Z</time>
      </trkpt>
      <trkpt lat="51.220357343643" lon="4.455986432371">
        <ele>1</ele>
        <time>2020-06-14T16:20:32Z</time>
      </trkpt>
      <trkpt lat="51.220220467216" lon="4.455424342157">
        <ele>1.6</ele>
        <time>2020-06-14T16:20:43Z</time>
      </trkpt>
    </trkseg>
  </trk>
</gpx>